Time;durP1;ratioP1;P1;durP2;ratioP2;P2;SDS_P1;SDS_P2;PMS_P1;PMS_P2;Temp;Humidity;BMP_temperature;BMP_pressure;BME280_temperature;BME280_humidity;BME280_pressure;Samples;Min_cycle;Max_cycle;Signal;HPM_P1;HPM_P2
2022/11/28 00:01:08;;;;;;;16.88;5.55;;;7.70;88.50;;;;;;9177522;19;20018;-69
2022/11/28 00:04:12;;;;;;;8.02;4.65;;;7.70;88.60;;;;;;9175930;19;20015;-70
2022/11/28 00:07:18;;;;;;;8.93;4.90;;;7.70;88.50;;;;;;9178483;19;20010;-68
2022/11/28 00:10:22;;;;;;;16.15;5.68;;;7.70;88.60;;;;;;9176423;19;20022;-68
2022/11/28 00:13:26;;;;;;;9.93;5.30;;;7.80;88.60;;;;;;9176341;19;20018;-69
2022/11/28 00:16:30;;;;;;;;;;;7.80;88.70;;;;;;9180914;19;20018;-68
2022/11/28 00:19:34;;;;;;;7.27;4.27;;;7.80;88.60;;;;;;9182651;19;19910;-68
2022/11/28 00:22:39;;;;;;;7.03;4.80;;;7.80;88.50;;;;;;9174233;19;20089;-70
2022/11/28 00:25:44;;;;;;;8.35;4.60;;;7.80;88.60;;;;;;9180594;19;20467;-69
2022/11/28 00:28:48;;;;;;;11.85;4.93;;;7.80;88.60;;;;;;9181962;19;20014;-68
2022/11/28 00:31:52;;;;;;;9.75;4.50;;;7.80;88.60;;;;;;9180875;19;20023;-69
2022/11/28 00:34:55;;;;;;;10.63;4.50;;;7.80;88.60;;;;;;9180013;19;20077;-68
2022/11/28 00:38:01;;;;;;;9.18;4.38;;;7.80;88.60;;;;;;9181635;19;20028;-69
2022/11/28 00:41:06;;;;;;;9.32;4.68;;;7.80;88.60;;;;;;9180169;19;20343;-70
2022/11/28 00:44:10;;;;;;;10.98;4.70;;;7.80;88.70;;;;;;9179550;19;20025;-71
2022/11/28 00:47:14;;;;;;;7.68;4.60;;;7.80;88.70;;;;;;9179546;19;20035;-70
2022/11/28 00:50:18;;;;;;;6.22;4.38;;;7.80;88.70;;;;;;9181343;19;20035;-68
2022/11/28 00:53:23;;;;;;;8.35;4.97;;;7.80;88.70;;;;;;9175986;19;20018;-70
2022/11/28 00:56:30;;;;;;;7.45;4.65;;;7.90;88.80;;;;;;9180779;19;20085;-70
2022/11/28 00:59:33;;;;;;;9.63;5.72;;;7.90;88.80;;;;;;9180549;19;20018;-68
2022/11/28 01:02:37;;;;;;;12.35;5.20;;;7.90;88.70;;;;;;9179143;19;20014;-68
2022/11/28 01:05:42;;;;;;;;;;;7.90;88.70;;;;;;9180588;19;20100;-68
2022/11/28 01:08:47;;;;;;;9.88;5.00;;;7.90;88.70;;;;;;9180415;19;20312;-68
2022/11/28 01:11:53;;;;;;;8.70;4.63;;;7.90;88.60;;;;;;9179198;19;20475;-68
2022/11/28 01:14:57;;;;;;;8.32;4.80;;;7.90;88.70;;;;;;9179909;19;20019;-68
2022/11/28 01:18:01;;;;;;;7.43;4.53;;;7.90;88.70;;;;;;9179751;19;20094;-68
2022/11/28 01:21:05;;;;;;;9.00;4.80;;;7.90;88.70;;;;;;9180141;19;20645;-69
2022/11/28 01:24:11;;;;;;;11.65;4.80;;;8.00;88.80;;;;;;9174788;19;20010;-69
2022/11/28 01:27:15;;;;;;;9.00;4.63;;;8.00;88.80;;;;;;9179726;19;20015;-69
2022/11/28 01:30:19;;;;;;;8.02;4.93;;;8.00;88.70;;;;;;9178172;19;20090;-68
2022/11/28 01:33:22;;;;;;;;;;;8.00;88.80;;;;;;9176266;19;20014;-68
2022/11/28 01:36:27;;;;;;;7.13;4.55;;;8.00;88.70;;;;;;9179206;19;19925;-68
2022/11/28 01:39:33;;;;;;;8.15;5.03;;;8.00;88.60;;;;;;9180163;19;20588;-72
2022/11/28 01:42:36;;;;;;;8.02;4.75;;;8.00;88.70;;;;;;9176478;19;20018;-67
2022/11/28 01:45:40;;;;;;;8.68;4.78;;;8.00;88.70;;;;;;9177462;19;20018;-69
2022/11/28 01:48:44;;;;;;;8.40;4.65;;;8.10;88.80;;;;;;9176095;19;20029;-68
2022/11/28 01:51:53;;;;;;;9.13;5.18;;;8.10;88.80;;;;;;9174311;19;20030;-68
2022/11/28 01:55:02;;;;;;;14.60;4.97;;;8.10;88.80;;;;;;9178417;19;20022;-68
2022/11/28 01:58:06;;;;;;;10.00;5.07;;;8.10;88.90;;;;;;9176160;19;20014;-70
2022/11/28 02:01:11;;;;;;;8.55;4.53;;;8.10;88.80;;;;;;9178730;19;20018;-69
2022/11/28 02:04:15;;;;;;;8.20;4.72;;;8.10;88.90;;;;;;9178643;19;20018;-69
2022/11/28 02:07:20;;;;;;;7.47;4.53;;;8.20;88.90;;;;;;9178480;19;20638;-68
2022/11/28 02:10:29;;;;;;;11.60;5.57;;;8.20;88.80;;;;;;9177895;19;20045;-69
2022/11/28 02:13:44;;;;;;;11.80;5.25;;;8.20;89.50;;;;;;9174602;19;20018;-69
2022/11/28 02:17:02;;;;;;;9.93;5.35;;;8.20;88.90;;;;;;9177370;19;20023;-69
2022/11/28 02:20:40;;;;;;;9.38;4.88;;;8.20;88.90;;;;;;9176663;19;20018;-68
2022/11/28 02:24:05;;;;;;;10.85;5.40;;;8.20;88.90;;;;;;9171933;19;20010;-70
2022/11/28 02:27:34;;;;;;;7.47;4.63;;;8.20;88.80;;;;;;9177771;19;20006;-68
2022/11/28 02:30:48;;;;;;;10.77;5.47;;;8.20;88.90;;;;;;9177644;19;20096;-69
2022/11/28 02:33:56;;;;;;;11.25;5.68;;;8.30;88.90;;;;;;9175057;19;20014;-68
2022/11/28 02:37:08;;;;;;;9.43;4.88;;;8.30;88.90;;;;;;9176230;19;20018;-69
2022/11/28 02:40:19;;;;;;;9.25;4.82;;;8.30;88.90;;;;;;9178014;19;20014;-69
2022/11/28 02:43:30;;;;;;;7.70;4.65;;;8.30;88.90;;;;;;9176317;19;20028;-68
2022/11/28 02:46:42;;;;;;;13.07;6.20;;;8.30;88.90;;;;;;9172612;19;20364;-68
2022/11/28 02:49:54;;;;;;;10.52;5.13;;;8.40;89.00;;;;;;9175557;19;20014;-69
2022/11/28 02:53:05;;;;;;;11.52;5.60;;;8.30;88.90;;;;;;9173326;19;20006;-69
2022/11/28 02:56:12;;;;;;;9.98;5.28;;;8.40;88.90;;;;;;9175218;19;20021;-69
2022/11/28 02:59:33;;;;;;;7.57;5.47;;;8.40;88.90;;;;;;9175055;19;20459;-68
2022/11/28 03:02:37;;;;;;;10.00;5.15;;;8.40;88.90;;;;;;9174576;19;20018;-69
2022/11/28 03:05:47;;;;;;;9.60;5.95;;;8.40;88.90;;;;;;9176382;19;20010;-68
2022/11/28 03:09:06;;;;;;;10.13;5.45;;;8.50;89.00;;;;;;9177203;19;20078;-69
2022/11/28 03:12:21;;;;;;;13.40;5.50;;;8.50;89.00;;;;;;9175672;19;20039;-68
2022/11/28 03:15:32;;;;;;;7.32;5.25;;;8.50;89.00;;;;;;9175461;19;20081;-69
2022/11/28 03:18:41;;;;;;;9.32;5.78;;;8.50;89.00;;;;;;9174929;19;20372;-68
2022/11/28 03:21:58;;;;;;;9.52;5.20;;;8.50;89.00;;;;;;9175090;19;20023;-68
2022/11/28 03:25:11;;;;;;;11.70;5.75;;;8.60;89.10;;;;;;9172117;19;20017;-70
2022/11/28 03:28:20;;;;;;;11.57;6.18;;;8.60;89.00;;;;;;9173406;19;20010;-69
2022/11/28 03:31:28;;;;;;;9.77;5.55;;;8.60;89.10;;;;;;9173992;19;20519;-68
2022/11/28 03:34:36;;;;;;;10.48;5.60;;;8.60;89.00;;;;;;9172562;19;20019;-68
2022/11/28 03:37:49;;;;;;;10.60;5.32;;;8.60;89.10;;;;;;9173276;19;20018;-69
2022/11/28 03:40:57;;;;;;;10.27;5.60;;;8.60;89.10;;;;;;9175585;19;20101;-68
2022/11/28 03:44:03;;;;;;;11.65;5.88;;;8.60;89.10;;;;;;9170529;19;20015;-69
2022/11/28 03:47:07;;;;;;;12.02;5.32;;;8.60;89.00;;;;;;9175372;19;20046;-69
2022/11/28 03:50:16;;;;;;;14.57;5.90;;;8.70;89.10;;;;;;9175392;19;20022;-69
2022/11/28 03:53:28;;;;;;;13.82;5.80;;;8.70;89.10;;;;;;9172661;19;20090;-69
2022/11/28 03:56:39;;;;;;;10.88;5.72;;;8.70;89.20;;;;;;9172777;19;20021;-68
2022/11/28 03:59:46;;;;;;;10.35;5.78;;;8.70;89.10;;;;;;9180654;19;20032;-70
2022/11/28 04:02:58;;;;;;;12.43;6.15;;;8.70;89.10;;;;;;9182986;19;20018;-69
2022/11/28 04:06:05;;;;;;;11.57;5.90;;;8.70;89.20;;;;;;9180468;19;20017;-68
2022/11/28 04:09:17;;;;;;;11.82;6.38;;;8.70;89.20;;;;;;9181547;19;20014;-70
2022/11/28 04:12:27;;;;;;;8.90;5.90;;;8.80;89.20;;;;;;9182488;19;20023;-70
2022/11/28 04:15:40;;;;;;;11.40;6.13;;;8.80;89.20;;;;;;9180516;19;20078;-70
2022/11/28 04:18:51;;;;;;;8.07;5.45;;;8.80;89.20;;;;;;9180806;19;20026;-70
2022/11/28 04:22:00;;;;;;;10.18;5.90;;;8.80;89.20;;;;;;9180491;19;20050;-68
2022/11/28 04:25:11;;;;;;;14.60;7.15;;;8.80;89.20;;;;;;9177082;19;20018;-68
2022/11/28 04:28:19;;;;;;;14.30;6.90;;;8.80;89.20;;;;;;9182249;19;20017;-69
2022/11/28 04:31:24;;;;;;;13.20;6.05;;;8.80;89.20;;;;;;9182004;19;20082;-70
2022/11/28 04:34:31;;;;;;;13.50;6.90;;;8.80;89.20;;;;;;9177550;19;20023;-68
2022/11/28 04:37:37;;;;;;;14.43;6.35;;;8.80;89.20;;;;;;9179458;19;20022;-70
2022/11/28 04:40:47;;;;;;;12.35;6.72;;;8.90;89.30;;;;;;9181557;19;20018;-69
2022/11/28 04:43:56;;;;;;;12.45;6.07;;;8.80;89.30;;;;;;9180396;19;20014;-68
2022/11/28 04:47:00;;;;;;;12.23;6.18;;;8.90;89.30;;;;;;9181091;19;20344;-67
2022/11/28 04:50:05;;;;;;;10.30;6.13;;;8.90;89.30;;;;;;9181583;19;20015;-67
2022/11/28 04:53:15;;;;;;;13.88;6.85;;;8.90;89.40;;;;;;9177344;19;20126;-67
2022/11/28 04:56:25;;;;;;;10.93;5.63;;;8.90;89.30;;;;;;9178920;19;20471;-69
2022/11/28 04:59:31;;;;;;;11.48;5.97;;;8.90;89.30;;;;;;9180059;19;20044;-68
2022/11/28 05:02:36;;;;;;;11.90;6.68;;;8.90;89.40;;;;;;9179068;19;20383;-67
2022/11/28 05:05:45;;;;;;;14.10;6.32;;;8.90;89.40;;;;;;9180811;19;20412;-67
2022/11/28 05:08:49;;;;;;;14.45;5.97;;;8.90;89.40;;;;;;9177283;19;20017;-67
2022/11/28 05:11:54;;;;;;;;;;;8.90;89.30;;;;;;9179980;19;20022;-67
2022/11/28 05:14:58;;;;;;;11.90;6.47;;;8.90;89.40;;;;;;9175102;19;19923;-67
2022/11/28 05:18:02;;;;;;;9.90;6.10;;;8.90;89.30;;;;;;9178621;19;20085;-68
2022/11/28 05:21:07;;;;;;;11.75;6.65;;;8.90;89.40;;;;;;9180098;19;20006;-67
2022/11/28 05:24:12;;;;;;;10.52;6.00;;;8.90;89.40;;;;;;9173065;19;20483;-68
2022/11/28 05:27:17;;;;;;;10.25;5.93;;;8.90;89.40;;;;;;9179961;19;20669;-68
2022/11/28 05:30:21;;;;;;;13.05;7.20;;;8.90;89.40;;;;;;9180726;19;20042;-69
2022/11/28 05:33:25;;;;;;;;;;;8.90;89.40;;;;;;9177981;19;20038;-67
2022/11/28 05:36:29;;;;;;;12.13;6.37;;;9.00;89.50;;;;;;9174661;19;19928;-68
2022/11/28 05:39:33;;;;;;;8.73;6.05;;;9.00;89.40;;;;;;9180356;19;20015;-69
2022/11/28 05:42:39;;;;;;;12.07;6.85;;;9.00;89.40;;;;;;9179266;19;20015;-68
2022/11/28 05:45:43;;;;;;;12.80;7.30;;;8.90;89.40;;;;;;9178174;19;20048;-68
2022/11/28 05:48:47;;;;;;;17.52;7.80;;;8.90;89.40;;;;;;9179828;19;20433;-67
2022/11/28 05:51:50;;;;;;;13.52;7.57;;;8.90;89.40;;;;;;9177506;19;20014;-68
2022/11/28 05:54:54;;;;;;;16.90;8.55;;;8.90;89.50;;;;;;9176125;19;20027;-67
2022/11/28 05:58:00;;;;;;;13.30;7.85;;;8.90;89.50;;;;;;9177915;19;20018;-68
2022/11/28 06:01:11;;;;;;;16.15;7.47;;;8.90;89.50;;;;;;9176681;19;20475;-68
2022/11/28 06:04:15;;;;;;;14.88;8.80;;;9.00;89.60;;;;;;9179240;19;20014;-68
2022/11/28 06:07:19;;;;;;;14.13;8.15;;;9.00;89.60;;;;;;9178125;19;20029;-69
2022/11/28 06:10:23;;;;;;;13.20;7.28;;;9.00;89.60;;;;;;9178671;19;20034;-67
2022/11/28 06:13:29;;;;;;;;;;;9.00;89.60;;;;;;9178701;19;20018;-69
2022/11/28 06:16:33;;;;;;;14.15;7.32;;;9.00;89.60;;;;;;9177159;19;19927;-68
2022/11/28 06:19:37;;;;;;;14.27;8.05;;;9.00;89.50;;;;;;9176858;19;20010;-67
2022/11/28 06:22:40;;;;;;;;;;;9.00;89.50;;;;;;9170750;19;20041;-69
2022/11/28 06:25:44;;;;;;;13.23;7.70;;;9.00;89.60;;;;;;9177647;19;19918;-68
2022/11/28 06:28:50;;;;;;;17.60;8.00;;;9.00;89.40;;;;;;9176840;19;20014;-69
2022/11/28 06:31:54;;;;;;;18.52;9.48;;;9.00;89.50;;;;;;9173113;19;20018;-69
2022/11/28 06:34:58;;;;;;;16.15;9.02;;;9.00;89.60;;;;;;9172932;19;20011;-67
2022/11/28 06:38:02;;;;;;;16.63;9.20;;;9.00;89.60;;;;;;9177366;19;20022;-68
2022/11/28 06:41:08;;;;;;;15.40;8.35;;;9.00;89.60;;;;;;9178497;19;20022;-68
2022/11/28 06:44:16;;;;;;;15.85;7.80;;;9.00;89.70;;;;;;9177338;19;20336;-69
2022/11/28 06:47:20;;;;;;;17.00;8.77;;;9.00;89.70;;;;;;9176607;19;20094;-68
2022/11/28 06:50:23;;;;;;;18.58;8.88;;;9.00;89.70;;;;;;9175748;19;20073;-68
2022/11/28 06:53:27;;;;;;;19.38;10.38;;;9.00;89.70;;;;;;9168680;19;20014;-68
2022/11/28 06:56:35;;;;;;;16.50;9.23;;;9.00;89.80;;;;;;9172150;19;20011;-69
2022/11/28 06:59:40;;;;;;;;;;;9.00;89.70;;;;;;9173397;19;20036;-69
2022/11/28 07:02:44;;;;;;;14.75;8.55;;;9.00;89.70;;;;;;9169466;19;19942;-68
2022/11/28 07:05:48;;;;;;;17.80;8.65;;;9.00;89.60;;;;;;9172654;19;20022;-69
2022/11/28 07:08:52;;;;;;;19.50;9.20;;;9.00;89.70;;;;;;9173988;19;20007;-68
2022/11/28 07:11:56;;;;;;;16.52;8.52;;;9.00;89.80;;;;;;9176997;19;20048;-68
2022/11/28 07:15:01;;;;;;;21.75;10.68;;;9.00;89.70;;;;;;9163023;19;20022;-68
2022/11/28 07:18:05;;;;;;;16.60;9.73;;;9.00;89.80;;;;;;9166208;19;20422;-70
2022/11/28 07:21:09;;;;;;;;;;;9.00;89.80;;;;;;9169377;19;20019;-68
2022/11/28 07:24:13;;;;;;;16.13;9.38;;;9.00;89.80;;;;;;9164720;19;19918;-68
2022/11/28 07:27:17;;;;;;;18.05;10.35;;;9.00;89.70;;;;;;9165971;19;20042;-68
2022/11/28 07:30:23;;;;;;;17.75;11.18;;;9.00;89.80;;;;;;9167281;19;20060;-68
2022/11/28 07:33:27;;;;;;;16.23;9.77;;;9.00;89.80;;;;;;9170575;19;20026;-71
2022/11/28 07:36:31;;;;;;;;;;;9.00;89.80;;;;;;9180108;19;20532;-68
2022/11/28 07:39:35;;;;;;;20.02;9.85;;;9.00;89.80;;;;;;9179755;19;19922;-69
2022/11/28 07:42:39;;;;;;;19.30;10.95;;;9.00;89.70;;;;;;9182756;19;20368;-69
2022/11/28 07:45:44;;;;;;;;;;;9.00;89.70;;;;;;9181642;19;20007;-68
2022/11/28 07:49:04;;;;;;;17.58;9.93;;;9.00;89.70;;;;;;9178731;19;19985;-70
2022/11/28 07:52:08;;;;;;;17.35;10.60;;;9.00;89.70;;;;;;9179059;19;20018;-69
2022/11/28 07:55:11;;;;;;;17.38;10.57;;;9.00;89.70;;;;;;9173876;19;20089;-67
2022/11/28 07:58:15;;;;;;;23.15;12.02;;;9.00;89.70;;;;;;9179495;19;20019;-69
2022/11/28 08:01:22;;;;;;;;;;;9.00;89.80;;;;;;9179008;19;20021;-69
2022/11/28 08:04:25;;;;;;;16.48;9.95;;;9.00;89.80;;;;;;9176852;19;19960;-68
2022/11/28 08:07:29;;;;;;;18.33;10.50;;;9.00;89.70;;;;;;9175373;19;20015;-68
2022/11/28 08:10:33;;;;;;;19.25;10.60;;;9.00;89.70;;;;;;9177854;19;20018;-68
2022/11/28 08:13:37;;;;;;;;;;;8.90;89.70;;;;;;9176368;19;20051;-69
2022/11/28 08:16:44;;;;;;;20.92;10.93;;;9.00;89.80;;;;;;9181114;19;19942;-67
2022/11/28 08:19:48;;;;;;;20.40;10.88;;;9.00;89.70;;;;;;9181773;19;20344;-69
2022/11/28 08:22:52;;;;;;;16.10;9.35;;;9.00;89.80;;;;;;9174633;19;20029;-68
2022/11/28 08:25:56;;;;;;;17.98;10.30;;;9.00;89.80;;;;;;9179559;19;20017;-67
2022/11/28 08:29:00;;;;;;;22.33;10.20;;;9.00;89.80;;;;;;9182378;19;20026;-68
2022/11/28 08:32:06;;;;;;;17.80;10.05;;;9.00;89.80;;;;;;9180757;19;20018;-69
2022/11/28 08:35:10;;;;;;;17.25;9.63;;;9.00;89.90;;;;;;9177008;19;20033;-69
2022/11/28 08:38:13;;;;;;;16.60;10.02;;;9.00;89.90;;;;;;9173849;19;20082;-68
2022/11/28 08:41:19;;;;;;;15.73;9.20;;;9.00;89.90;;;;;;9174336;19;20043;-67
2022/11/28 08:44:23;;;;;;;16.52;8.68;;;8.90;89.90;;;;;;9174198;19;20041;-68
2022/11/28 08:47:28;;;;;;;14.05;9.05;;;9.00;89.90;;;;;;9164952;19;20018;-70
2022/11/28 08:50:32;;;;;;;17.60;8.73;;;9.00;89.90;;;;;;9171044;19;20113;-70
2022/11/28 08:53:36;;;;;;;13.60;8.05;;;9.00;89.90;;;;;;9161974;19;20022;-68
2022/11/28 08:56:40;;;;;;;11.65;7.40;;;9.00;89.90;;;;;;9169467;19;20014;-67
2022/11/28 08:59:44;;;;;;;18.67;8.20;;;9.00;89.90;;;;;;9164625;19;20022;-69
2022/11/28 09:02:50;;;;;;;14.75;8.90;;;9.00;89.90;;;;;;9165245;19;20365;-68
2022/11/28 09:05:54;;;;;;;14.50;8.45;;;9.00;90.00;;;;;;9163657;19;20025;-69
2022/11/28 09:09:00;;;;;;;13.88;8.02;;;9.00;90.00;;;;;;9165428;19;20042;-68
2022/11/28 09:12:04;;;;;;;13.45;7.53;;;9.00;90.00;;;;;;9161565;19;20019;-69
2022/11/28 09:15:10;;;;;;;16.20;8.63;;;9.00;90.00;;;;;;9167182;19;20014;-68
2022/11/28 09:18:16;;;;;;;12.70;8.57;;;9.00;90.00;;;;;;9168088;19;20476;-68
2022/11/28 09:21:20;;;;;;;13.98;8.27;;;9.00;90.00;;;;;;9159675;19;20027;-69
2022/11/28 09:24:24;;;;;;;16.13;9.30;;;9.00;90.00;;;;;;9158346;19;20022;-71
2022/11/28 09:27:28;;;;;;;17.08;8.82;;;9.00;90.00;;;;;;9159065;19;20026;-70
2022/11/28 09:30:32;;;;;;;;;;;9.00;90.00;;;;;;9162201;19;20014;-68
2022/11/28 09:33:37;;;;;;;25.17;9.10;;;9.00;90.00;;;;;;9160059;19;19922;-67
2022/11/28 09:36:41;;;;;;;17.70;9.48;;;9.00;90.00;;;;;;9162623;19;20018;-69
2022/11/28 09:39:45;;;;;;;15.38;9.50;;;9.00;90.00;;;;;;9163770;19;20023;-68
2022/11/28 09:43:16;;;;;;;15.07;9.48;;;9.00;90.00;;;;;;9165682;19;20094;-71
2022/11/28 09:46:25;;;;;;;17.50;9.45;;;9.00;90.00;;;;;;9161375;19;20059;-70
2022/11/28 09:49:37;;;;;;;17.40;9.13;;;9.00;90.00;;;;;;9162514;19;20110;-70
2022/11/28 09:52:50;;;;;;;17.45;9.65;;;9.00;90.00;;;;;;9155523;19;20018;-72
2022/11/28 09:55:59;;;;;;;17.67;9.20;;;9.00;90.00;;;;;;9165707;19;20023;-72
2022/11/28 09:59:03;;;;;;;18.90;9.75;;;9.00;90.00;;;;;;9157024;19;20809;-72
2022/11/28 10:02:21;;;;;;;17.63;9.95;;;9.00;90.00;;;;;;9163768;19;20019;-72
2022/11/28 10:05:34;;;;;;;19.05;11.30;;;9.00;90.00;;;;;;9159820;19;20367;-70
2022/11/28 10:08:48;;;;;;;18.00;9.38;;;9.00;90.00;;;;;;9165845;19;20018;-70
2022/11/28 10:12:06;;;;;;;16.80;9.55;;;9.10;90.10;;;;;;9165059;19;20027;-70
2022/11/28 10:15:20;;;;;;;15.75;9.73;;;9.10;90.10;;;;;;9155884;19;20019;-69
2022/11/28 10:18:34;;;;;;;18.90;10.32;;;9.10;90.00;;;;;;9165363;19;20006;-70
2022/11/28 10:21:44;;;;;;;16.25;8.68;;;9.10;90.00;;;;;;9161216;19;20018;-69
2022/11/28 10:24:52;;;;;;;17.98;9.05;;;9.10;90.00;;;;;;9162537;19;20038;-69
2022/11/28 10:27:57;;;;;;;18.40;9.43;;;9.10;90.00;;;;;;9171296;19;20345;-69
2022/11/28 10:31:06;;;;;;;18.27;10.02;;;9.10;90.00;;;;;;9170832;19;20010;-69
2022/11/28 10:34:18;;;;;;;22.52;12.50;;;9.10;90.00;;;;;;9167401;19;20334;-68
2022/11/28 10:37:27;;;;;;;17.42;10.27;;;9.10;90.10;;;;;;9166207;19;20039;-69
2022/11/28 10:40:50;;;;;;;17.17;10.05;;;9.10;90.10;;;;;;9168023;19;20058;-68
2022/11/28 10:44:00;;;;;;;18.63;10.00;;;9.10;90.10;;;;;;9168812;19;20667;-70
2022/11/28 10:47:08;;;;;;;15.23;9.73;;;9.10;90.00;;;;;;9168272;19;20015;-70
2022/11/28 10:50:19;;;;;;;16.40;9.25;;;9.10;90.00;;;;;;9157316;19;20544;-70
2022/11/28 10:53:37;;;;;;;14.07;9.88;;;9.20;90.10;;;;;;9159399;19;20048;-68
2022/11/28 10:56:48;;;;;;;18.90;9.98;;;9.20;90.10;;;;;;9163798;19;20605;-68
2022/11/28 11:00:02;;;;;;;14.77;9.63;;;9.20;90.10;;;;;;9159887;19;20026;-68
2022/11/28 11:03:12;;;;;;;19.40;9.23;;;9.20;90.10;;;;;;9163416;19;20094;-69
2022/11/28 11:06:16;;;;;;;17.17;10.30;;;9.20;90.10;;;;;;9163291;19;20018;-70
2022/11/28 11:09:22;;;;;;;13.50;9.35;;;9.20;90.10;;;;;;9178686;19;20689;-70
2022/11/28 11:12:31;;;;;;;16.23;9.55;;;9.20;90.10;;;;;;9183212;19;20022;-70
2022/11/28 11:15:35;;;;;;;16.95;11.07;;;9.20;90.10;;;;;;9175182;19;20018;-69
2022/11/28 11:18:51;;;;;;;;;;;9.20;90.10;;;;;;9184747;19;20029;-69
2022/11/28 11:22:20;;;;;;;18.80;12.27;;;9.20;90.10;;;;;;9179795;19;20269;-68
2022/11/28 11:25:28;;;;;;;16.40;10.45;;;9.20;90.00;;;;;;9181958;19;20021;-69
2022/11/28 11:28:46;;;;;;;18.45;10.80;;;9.20;90.10;;;;;;9187274;19;20018;-70
2022/11/28 11:31:53;;;;;;;20.35;10.93;;;9.20;90.10;;;;;;9183580;19;20018;-69
2022/11/28 11:34:58;;;;;;;20.95;11.38;;;9.20;90.10;;;;;;9181755;19;20026;-69
2022/11/28 11:38:17;;;;;;;15.50;10.05;;;9.20;90.10;;;;;;9186984;19;20018;-69
2022/11/28 11:41:30;;;;;;;21.98;10.77;;;9.20;90.10;;;;;;9183354;19;20022;-69
2022/11/28 11:44:35;;;;;;;21.42;11.50;;;9.20;90.10;;;;;;9186544;19;20022;-71
2022/11/28 11:47:44;;;;;;;16.77;10.85;;;9.20;90.10;;;;;;9184598;19;20019;-70
2022/11/28 11:50:55;;;;;;;18.02;10.65;;;9.20;90.10;;;;;;9179614;19;20495;-68
2022/11/28 11:54:05;;;;;;;18.42;11.05;;;9.20;90.10;;;;;;9177691;19;20031;-69
2022/11/28 11:57:13;;;;;;;16.92;10.60;;;9.30;90.20;;;;;;9175474;19;21020;-69
2022/11/28 12:00:40;;;;;;;20.02;10.90;;;9.30;90.10;;;;;;9178069;19;20033;-70
2022/11/28 12:03:54;;;;;;;20.75;12.88;;;9.30;90.10;;;;;;9176130;19;20020;-69
2022/11/28 12:07:01;;;;;;;18.90;10.27;;;9.30;90.10;;;;;;9180059;19;20352;-67
2022/11/28 12:10:10;;;;;;;17.98;10.15;;;9.30;90.10;;;;;;9175103;19;20364;-68
2022/11/28 12:13:21;;;;;;;14.23;9.73;;;9.30;90.10;;;;;;9178258;19;20043;-67
2022/11/28 12:16:43;;;;;;;15.90;9.77;;;9.30;90.10;;;;;;9184629;19;20015;-70
2022/11/28 12:20:02;;;;;;;16.70;9.85;;;9.30;90.20;;;;;;9175874;19;20051;-69
2022/11/28 12:23:18;;;;;;;18.20;10.50;;;9.30;90.10;;;;;;9170381;19;20015;-68
2022/11/28 12:26:28;;;;;;;18.92;10.73;;;9.30;90.10;;;;;;9181733;19;20432;-68
2022/11/28 12:29:55;;;;;;;15.00;10.00;;;9.40;90.20;;;;;;9179306;19;20057;-67
2022/11/28 12:33:14;;;;;;;14.10;8.82;;;9.40;90.20;;;;;;9177819;19;20018;-67
2022/11/28 12:36:27;;;;;;;16.17;9.70;;;9.40;90.20;;;;;;9176213;19;20007;-69
2022/11/28 12:39:42;;;;;;;13.18;9.23;;;9.40;90.20;;;;;;9162626;19;20022;-68
2022/11/28 12:43:03;;;;;;;13.93;8.43;;;9.40;90.20;;;;;;9164587;19;20057;-74
2022/11/28 12:46:17;;;;;;;12.38;8.60;;;9.40;90.20;;;;;;9163404;19;20051;-67
2022/11/28 12:49:28;;;;;;;14.30;9.52;;;9.40;90.10;;;;;;9167685;19;20431;-69
2022/11/28 12:52:40;;;;;;;13.35;9.20;;;9.50;90.20;;;;;;9165733;19;20022;-68
2022/11/28 12:55:49;;;;;;;16.17;9.35;;;9.50;90.20;;;;;;9167817;19;20018;-68
2022/11/28 12:59:02;;;;;;;15.27;9.20;;;9.50;90.20;;;;;;9170148;19;20057;-67
2022/11/28 13:02:25;;;;;;;12.15;7.85;;;9.50;90.20;;;;;;9170617;19;20119;-67
2022/11/28 13:05:40;;;;;;;11.65;8.55;;;9.50;90.20;;;;;;9165135;19;20041;-70
2022/11/28 13:08:58;;;;;;;15.20;8.23;;;9.50;90.20;;;;;;9167077;19;20623;-68
2022/11/28 13:12:16;;;;;;;13.15;7.70;;;9.50;90.20;;;;;;9169022;19;20057;-67
2022/11/28 13:15:29;;;;;;;13.82;7.43;;;9.50;90.20;;;;;;9169557;19;20019;-68
2022/11/28 13:18:43;;;;;;;13.07;8.30;;;9.50;90.20;;;;;;9166178;19;20471;-68
2022/11/28 13:21:53;;;;;;;10.23;7.30;;;9.60;90.20;;;;;;9166128;19;20029;-68
2022/11/28 13:25:02;;;;;;;11.10;7.70;;;9.60;90.20;;;;;;9162791;19;20598;-67
2022/11/28 13:28:13;;;;;;;14.20;7.43;;;9.60;90.20;;;;;;9166403;19;20021;-69
2022/11/28 13:31:24;;;;;;;11.02;7.32;;;9.60;90.20;;;;;;9167248;19;20024;-67
2022/11/28 13:34:31;;;;;;;12.25;7.75;;;9.60;90.20;;;;;;9165079;19;20022;-70
2022/11/28 13:37:41;;;;;;;12.10;7.72;;;9.60;90.20;;;;;;9173469;19;20022;-67
2022/11/28 13:41:11;;;;;;;14.57;7.93;;;9.60;90.20;;;;;;9165466;19;20384;-68
2022/11/28 13:44:42;;;;;;;12.15;7.47;;;9.60;90.20;;;;;;9162014;19;20022;-69
2022/11/28 13:47:47;;;;;;;11.00;7.03;;;9.60;90.20;;;;;;9167657;19;20479;-68
2022/11/28 13:51:03;;;;;;;10.07;7.30;;;9.60;90.20;;;;;;9166209;19;20043;-69
2022/11/28 13:54:46;;;;;;;11.38;7.32;;;9.60;90.20;;;;;;9160642;19;20122;-69
2022/11/28 13:57:52;;;;;;;14.55;8.05;;;9.60;90.20;;;;;;9165750;19;20026;-69
2022/11/28 14:01:03;;;;;;;14.13;7.70;;;9.60;90.20;;;;;;9170446;19;20026;-68
2022/11/28 14:04:10;;;;;;;10.95;6.75;;;9.60;90.20;;;;;;9169064;19;20037;-69
2022/11/28 14:07:25;;;;;;;11.70;7.95;;;9.60;90.20;;;;;;9167567;19;20040;-68
2022/11/28 14:11:07;;;;;;;19.17;10.93;;;9.60;90.20;;;;;;9167279;19;20799;-69
2022/11/28 14:14:44;;;;;;;24.17;9.85;;;9.60;90.20;;;;;;9164023;19;20026;-68
2022/11/28 14:18:02;;;;;;;13.93;8.60;;;9.60;90.20;;;;;;9164562;19;20029;-69
2022/11/28 14:21:39;;;;;;;12.52;8.27;;;9.60;90.20;;;;;;9159139;19;20019;-68
2022/11/28 14:24:57;;;;;;;13.77;8.27;;;9.70;90.20;;;;;;9156346;19;20487;-68
2022/11/28 14:28:04;;;;;;;13.75;8.15;;;9.70;90.20;;;;;;9164196;19;20026;-68
2022/11/28 14:31:23;;;;;;;10.70;7.45;;;9.70;90.20;;;;;;9163274;19;20029;-68
2022/11/28 14:34:39;;;;;;;12.13;6.93;;;9.70;90.20;;;;;;9170183;19;20026;-67
2022/11/28 14:37:54;;;;;;;11.73;7.60;;;9.70;90.20;;;;;;9167065;19;20367;-67
2022/11/28 14:41:07;;;;;;;15.63;8.57;;;9.70;90.20;;;;;;9161046;19;20014;-67
2022/11/28 14:44:43;;;;;;;13.77;8.35;;;9.70;90.20;;;;;;9163298;19;20030;-68
2022/11/28 14:48:07;;;;;;;12.45;7.88;;;9.70;90.20;;;;;;9169187;19;20018;-68
2022/11/28 14:51:11;;;;;;;14.70;8.52;;;9.70;90.20;;;;;;9167839;19;20030;-68
2022/11/28 14:54:22;;;;;;;14.40;8.27;;;9.70;90.20;;;;;;9161941;19;20014;-68
2022/11/28 14:57:31;;;;;;;11.40;7.72;;;9.80;90.20;;;;;;9163215;19;20018;-67
2022/11/28 15:00:46;;;;;;;11.27;7.07;;;9.70;90.20;;;;;;9166416;19;20353;-70
2022/11/28 15:03:56;;;;;;;;;;;9.70;90.20;;;;;;9164492;19;20019;-68
2022/11/28 15:07:04;;;;;;;11.82;7.57;;;9.70;90.20;;;;;;9164141;19;20566;-67
2022/11/28 15:10:11;;;;;;;12.60;7.43;;;9.70;90.20;;;;;;9167460;19;20938;-68
2022/11/28 15:13:36;;;;;;;16.02;8.90;;;9.70;90.20;;;;;;9168227;19;20022;-68
2022/11/28 15:16:43;;;;;;;12.88;8.60;;;9.70;90.20;;;;;;9161478;19;20074;-67
2022/11/28 15:19:58;;;;;;;15.77;7.95;;;9.70;90.20;;;;;;9159253;19;20015;-68
2022/11/28 15:23:02;;;;;;;14.93;8.65;;;9.70;90.20;;;;;;9157679;19;20087;-68
2022/11/28 15:26:06;;;;;;;10.18;7.07;;;9.70;90.20;;;;;;9161472;19;20022;-68
2022/11/28 15:29:20;;;;;;;12.68;7.57;;;9.70;90.20;;;;;;9166274;19;20018;-67
2022/11/28 15:32:25;;;;;;;11.27;7.25;;;9.80;90.30;;;;;;9168150;19;20067;-68
2022/11/28 15:35:29;;;;;;;13.98;7.72;;;9.70;90.30;;;;;;9158612;19;20027;-70
2022/11/28 15:38:36;;;;;;;11.02;7.22;;;9.70;90.20;;;;;;9158773;19;20018;-68
2022/11/28 15:41:40;;;;;;;14.57;8.15;;;9.70;90.20;;;;;;9160933;19;20629;-68
2022/11/28 15:44:46;;;;;;;11.00;6.80;;;9.70;90.30;;;;;;9161702;19;20021;-67
2022/11/28 15:47:51;;;;;;;13.68;7.63;;;9.70;90.20;;;;;;9169111;19;20019;-68
2022/11/28 15:50:56;;;;;;;11.70;7.47;;;9.70;90.20;;;;;;9167384;19;20030;-67
2022/11/28 15:54:02;;;;;;;13.85;7.57;;;9.70;90.30;;;;;;9169922;19;20053;-68
2022/11/28 15:57:07;;;;;;;13.80;7.95;;;9.70;90.20;;;;;;9175914;19;20022;-67
2022/11/28 16:00:16;;;;;;;14.52;7.53;;;9.70;90.20;;;;;;9175151;19;20011;-68
2022/11/28 16:03:25;;;;;;;15.80;8.82;;;9.70;90.20;;;;;;9177612;19;20030;-68
2022/11/28 16:06:31;;;;;;;15.18;8.50;;;9.70;90.50;;;;;;9181679;19;20011;-67
2022/11/28 16:09:37;;;;;;;18.80;9.30;;;9.70;90.20;;;;;;9179633;19;20046;-70
2022/11/28 16:12:43;;;;;;;19.90;8.82;;;9.80;90.30;;;;;;9181708;19;20113;-67
2022/11/28 16:15:51;;;;;;;17.92;8.93;;;9.70;90.20;;;;;;9172891;19;20042;-67
2022/11/28 16:18:58;;;;;;;18.00;9.45;;;9.70;90.20;;;;;;9176397;19;20031;-68
2022/11/28 16:22:04;;;;;;;18.65;9.10;;;9.80;90.30;;;;;;9169327;19;20018;-68
2022/11/28 16:25:23;;;;;;;16.00;8.93;;;9.70;90.30;;;;;;9163532;19;20018;-67
2022/11/28 16:28:35;;;;;;;14.32;8.43;;;9.70;90.30;;;;;;9166133;19;20022;-68